Hellin, Spain
Current Conditions -  °F | °C
As of 2:00 PM on Friday 19 Dec 2014 (Local Time) from LEAB Reporting Station
Clear Clear  
Wind Chill: 54°   Ceiling: Unl
Heat Index: 54°   Visibility: 6mi
Dew Point: 46°   Wind: 3mph
Humidity: 77%   Direction: 360°N
Pressure: 30.42"   Gusts: NA
Location:  38.51°N, 1.7°W
Report Text: LEAB 191300Z 36003KT 330V050 CAVOK 12/08 Q1030 NOSIG
Loading
Personal Weather Stations






























Interactive Weather Map New forecast layout! Learn more

10-Day Weather Forecast

Advertisements
Track Severe Weather on mobile